Ohio City, Ohio
Current Conditions -  °F | °C
As of 12:34 AM on Wednesday 22 Oct 2014 (Local Time) from KAXV Reporting Station
Overcast Overcast  
Wind Chill: 40°   Ceiling: 2100
Heat Index: 45°   Visibility: 10mi
Dew Point: 39°   Wind: 8mph
Humidity: 81%   Direction: 360°N
Pressure: 30.2"   Gusts: NA
Location:  40.77°N, 84.62°W
Report Text: KAXV 220434Z AUTO 36007KT 10SM OVC021 07/04 A3020 RMK AO2
Loading
Personal Weather Stations






























Interactive Weather Map
Tropical Storm Tracking
New forecast layout! Learn more

10-Day Weather Forecast

Advertisements
Track Severe Weather on mobile